LFPV METAR and TAF | Updated Today

LFPV METAR

Villacoublay-Vélizy (BA 107) Air Base

Observation time: 24 min. ago

LFPV 011630Z AUTO 28011KT 9999 FEW037 BKN048 BKN170 08/02 Q1028 TEMPO 28015G25KT

Need help? Read our tutorial on how to read METARs or read the parsed version below.

Villacoublay-Vélizy (BA 107) Air Base (LFPV) METAR

  • Weather conditions on Wed, 01 Feb 2023 16:30:00 +0000 (24 min. ago):
  • Present conditions: Dry
  • Clouds: A few at 1128 meters; broken sky at 1463 meters; broken sky at 5182 meters
  • Visibility: Greater than 10 km
  • Wind: 280 degrees at 11 knots
  • Temperature: 8 celsius
  • Dew point: 2 celsius
  • Pressure: 1028 millibars
  • Remarks: None


Useful to know...

LFPV TAF

Villacoublay-Vélizy (BA 107) Air Base

TAF LFPV 011400Z 0115/0215 28010KT 9999 BKN032 BKN040 BKN046 TX10/0215Z TN05/0203Z TEMPO 0115/0118 28015G25KT
Observation time: 2:54 hr. ago
Need help? Read our tutorial on how to read TAFs or read the parsed version below.

Parsed version of TAF for Villacoublay-Vélizy (BA 107) Air Base (LFPV)

  • From 01 February at 15:00 UTC, to day 02 of the month at 15:00 UTC
  • Clouds: Broken sky at 975 meters; broken sky at 1219 meters; broken sky at 1402 meters
  • Visibility: Greater than 10 km
  • Wind: 280 degrees at 10
  • Expected to arise temporarily, from 01 February at 15:00 UTC, to day 01 of the month at 18:00 UTC
  • Wind: 280 degrees at 15